sensor_id;sensor_type;location;lat;lon;timestamp;temperature;humidity
65074;DHT22;52218;51.224;-2.328;2023-02-10T00:00:18;-0.90;99.90
65074;DHT22;52218;51.224;-2.328;2023-02-10T00:04:00;-0.90;99.90
65074;DHT22;52218;51.224;-2.328;2023-02-10T00:07:42;-1.00;99.90
65074;DHT22;52218;51.224;-2.328;2023-02-10T00:11:25;-1.00;99.90
65074;DHT22;52218;51.224;-2.328;2023-02-10T00:15:26;-1.00;99.90
65074;DHT22;52218;51.224;-2.328;2023-02-10T00:19:08;-1.10;99.90
65074;DHT22;52218;51.224;-2.328;2023-02-10T00:22:50;-1.10;99.90
65074;DHT22;52218;51.224;-2.328;2023-02-10T00:26:32;-1.10;99.90
65074;DHT22;52218;51.224;-2.328;2023-02-10T00:30:14;-1.20;99.90
65074;DHT22;52218;51.224;-2.328;2023-02-10T00:33:56;-1.20;99.90
65074;DHT22;52218;51.224;-2.328;2023-02-10T00:37:38;-1.20;99.90
65074;DHT22;52218;51.224;-2.328;2023-02-10T00:41:22;-1.20;99.90
65074;DHT22;52218;51.224;-2.328;2023-02-10T00:45:07;-1.30;99.90
65074;DHT22;52218;51.224;-2.328;2023-02-10T00:48:50;-1.30;99.90
65074;DHT22;52218;51.224;-2.328;2023-02-10T00:52:32;-1.30;99.90
65074;DHT22;52218;51.224;-2.328;2023-02-10T00:56:14;-1.30;99.90
65074;DHT22;52218;51.224;-2.328;2023-02-10T00:59:56;-1.30;99.90
65074;DHT22;52218;51.224;-2.328;2023-02-10T01:03:40;-1.40;99.90
65074;DHT22;52218;51.224;-2.328;2023-02-10T01:07:22;-1.40;99.90
65074;DHT22;52218;51.224;-2.328;2023-02-10T01:11:07;-1.40;99.90
65074;DHT22;52218;51.224;-2.328;2023-02-10T01:14:49;-1.40;99.90
65074;DHT22;52218;51.224;-2.328;2023-02-10T01:18:31;-1.40;99.90
65074;DHT22;52218;51.224;-2.328;2023-02-10T01:22:13;-1.50;99.90
65074;DHT22;52218;51.224;-2.328;2023-02-10T01:25:59;-1.50;99.90
65074;DHT22;52218;51.224;-2.328;2023-02-10T01:29:40;-1.50;99.90
65074;DHT22;52218;51.224;-2.328;2023-02-10T01:33:23;-1.50;99.90
65074;DHT22;52218;51.224;-2.328;2023-02-10T01:37:05;-1.50;99.90
65074;DHT22;52218;51.224;-2.328;2023-02-10T01:40:48;-1.50;99.90
65074;DHT22;52218;51.224;-2.328;2023-02-10T01:48:13;-1.50;99.90
65074;DHT22;52218;51.224;-2.328;2023-02-10T01:51:59;-1.60;99.90
65074;DHT22;52218;51.224;-2.328;2023-02-10T01:55:45;-1.60;99.90
65074;DHT22;52218;51.224;-2.328;2023-02-10T01:59:32;-1.60;99.90
65074;DHT22;52218;51.224;-2.328;2023-02-10T02:03:16;-1.70;99.90
65074;DHT22;52218;51.224;-2.328;2023-02-10T02:06:58;-1.70;99.90
65074;DHT22;52218;51.224;-2.328;2023-02-10T02:11:16;-1.70;99.90
65074;DHT22;52218;51.224;-2.328;2023-02-10T02:20:13;-1.70;99.90
65074;DHT22;52218;51.224;-2.328;2023-02-10T02:32:27;-1.80;99.90
65074;DHT22;52218;51.224;-2.328;2023-02-10T02:36:14;-1.90;99.90
65074;DHT22;52218;51.224;-2.328;2023-02-10T02:39:58;-1.90;99.90
65074;DHT22;52218;51.224;-2.328;2023-02-10T02:43:40;-1.90;99.90
65074;DHT22;52218;51.224;-2.328;2023-02-10T02:47:27;-1.90;99.90
65074;DHT22;52218;51.224;-2.328;2023-02-10T02:51:21;-1.90;99.90
65074;DHT22;52218;51.224;-2.328;2023-02-10T02:55:09;-2.00;99.90
65074;DHT22;52218;51.224;-2.328;2023-02-10T02:59:09;-2.00;99.90
65074;DHT22;52218;51.224;-2.328;2023-02-10T03:02:53;-2.00;99.90
65074;DHT22;52218;51.224;-2.328;2023-02-10T03:06:36;-2.00;99.90
65074;DHT22;52218;51.224;-2.328;2023-02-10T03:10:18;-2.10;99.90
65074;DHT22;52218;51.224;-2.328;2023-02-10T03:14:00;-2.10;99.90
65074;DHT22;52218;51.224;-2.328;2023-02-10T03:17:42;-2.10;99.90
65074;DHT22;52218;51.224;-2.328;2023-02-10T03:21:24;-2.10;99.90
65074;DHT22;52218;51.224;-2.328;2023-02-10T03:25:07;-2.10;99.90
65074;DHT22;52218;51.224;-2.328;2023-02-10T03:28:49;-2.10;99.90
65074;DHT22;52218;51.224;-2.328;2023-02-10T03:32:31;-2.10;99.90
65074;DHT22;52218;51.224;-2.328;2023-02-10T03:36:13;-2.10;99.90
65074;DHT22;52218;51.224;-2.328;2023-02-10T03:39:55;-2.20;99.90
65074;DHT22;52218;51.224;-2.328;2023-02-10T03:43:37;-2.20;99.90
65074;DHT22;52218;51.224;-2.328;2023-02-10T03:47:19;-2.20;99.90
65074;DHT22;52218;51.224;-2.328;2023-02-10T03:51:03;-2.20;99.90
65074;DHT22;52218;51.224;-2.328;2023-02-10T03:54:46;-2.30;99.90
65074;DHT22;52218;51.224;-2.328;2023-02-10T03:58:28;-2.30;99.90
65074;DHT22;52218;51.224;-2.328;2023-02-10T04:02:10;-2.30;99.90
65074;DHT22;52218;51.224;-2.328;2023-02-10T04:05:52;-2.30;99.90
65074;DHT22;52218;51.224;-2.328;2023-02-10T04:09:36;-2.30;99.90
65074;DHT22;52218;51.224;-2.328;2023-02-10T04:13:18;-2.30;99.90
65074;DHT22;52218;51.224;-2.328;2023-02-10T04:17:01;-2.30;99.90
65074;DHT22;52218;51.224;-2.328;2023-02-10T04:20:43;-2.30;99.90
65074;DHT22;52218;51.224;-2.328;2023-02-10T04:24:25;-2.40;99.90
65074;DHT22;52218;51.224;-2.328;2023-02-10T04:28:07;-2.40;99.90
65074;DHT22;52218;51.224;-2.328;2023-02-10T04:31:49;-2.40;99.90
65074;DHT22;52218;51.224;-2.328;2023-02-10T04:35:31;-2.40;99.90
65074;DHT22;52218;51.224;-2.328;2023-02-10T04:39:13;-2.40;99.90
65074;DHT22;52218;51.224;-2.328;2023-02-10T04:42:55;-2.40;99.90
65074;DHT22;52218;51.224;-2.328;2023-02-10T04:46:37;-2.40;99.90
65074;DHT22;52218;51.224;-2.328;2023-02-10T04:50:19;-2.40;99.90
65074;DHT22;52218;51.224;-2.328;2023-02-10T04:54:01;-2.40;99.90
65074;DHT22;52218;51.224;-2.328;2023-02-10T04:57:43;-2.40;99.90
65074;DHT22;52218;51.224;-2.328;2023-02-10T05:01:25;-2.40;99.90
65074;DHT22;52218;51.224;-2.328;2023-02-10T05:05:09;-2.30;99.90
65074;DHT22;52218;51.224;-2.328;2023-02-10T05:08:52;-2.40;99.90
65074;DHT22;52218;51.224;-2.328;2023-02-10T05:12:34;-2.40;99.90
65074;DHT22;52218;51.224;-2.328;2023-02-10T05:16:16;-2.50;99.90
65074;DHT22;52218;51.224;-2.328;2023-02-10T05:19:58;-2.40;99.90
65074;DHT22;52218;51.224;-2.328;2023-02-10T05:23:40;-2.50;99.90
65074;DHT22;52218;51.224;-2.328;2023-02-10T05:27:24;-2.50;99.90
65074;DHT22;52218;51.224;-2.328;2023-02-10T05:31:06;-2.50;99.90
65074;DHT22;52218;51.224;-2.328;2023-02-10T05:34:50;-2.60;99.90
65074;DHT22;52218;51.224;-2.328;2023-02-10T05:38:32;-2.60;99.90
65074;DHT22;52218;51.224;-2.328;2023-02-10T05:42:14;-2.50;99.90
65074;DHT22;52218;51.224;-2.328;2023-02-10T05:45:56;-2.50;99.90
65074;DHT22;52218;51.224;-2.328;2023-02-10T05:49:38;-2.60;99.90
65074;DHT22;52218;51.224;-2.328;2023-02-10T05:53:20;-2.60;99.90
65074;DHT22;52218;51.224;-2.328;2023-02-10T05:57:03;-2.60;99.90
65074;DHT22;52218;51.224;-2.328;2023-02-10T06:00:45;-2.60;99.90
65074;DHT22;52218;51.224;-2.328;2023-02-10T06:04:27;-2.60;99.90
65074;DHT22;52218;51.224;-2.328;2023-02-10T06:08:09;-2.60;99.90
65074;DHT22;52218;51.224;-2.328;2023-02-10T06:11:51;-2.60;99.90
65074;DHT22;52218;51.224;-2.328;2023-02-10T06:15:33;-2.60;99.90
65074;DHT22;52218;51.224;-2.328;2023-02-10T06:19:15;-2.50;99.90
65074;DHT22;52218;51.224;-2.328;2023-02-10T06:23:01;-2.50;99.90
65074;DHT22;52218;51.224;-2.328;2023-02-10T06:26:43;-2.50;99.90
65074;DHT22;52218;51.224;-2.328;2023-02-10T06:30:25;-2.50;99.90
65074;DHT22;52218;51.224;-2.328;2023-02-10T06:34:07;-2.50;99.90
65074;DHT22;52218;51.224;-2.328;2023-02-10T06:37:49;-2.50;99.90
65074;DHT22;52218;51.224;-2.328;2023-02-10T06:41:33;-2.50;99.90
65074;DHT22;52218;51.224;-2.328;2023-02-10T06:45:15;-2.50;99.90
65074;DHT22;52218;51.224;-2.328;2023-02-10T06:48:57;-2.50;99.90
65074;DHT22;52218;51.224;-2.328;2023-02-10T06:52:41;-2.50;99.90
65074;DHT22;52218;51.224;-2.328;2023-02-10T06:56:23;-2.50;99.90
65074;DHT22;52218;51.224;-2.328;2023-02-10T07:00:11;-2.50;99.90
65074;DHT22;52218;51.224;-2.328;2023-02-10T07:03:53;-2.40;99.90
65074;DHT22;52218;51.224;-2.328;2023-02-10T07:07:35;-2.30;99.90
65074;DHT22;52218;51.224;-2.328;2023-02-10T07:11:17;-2.30;99.90
65074;DHT22;52218;51.224;-2.328;2023-02-10T07:14:59;-2.30;99.90
65074;DHT22;52218;51.224;-2.328;2023-02-10T07:18:41;-2.20;99.90
65074;DHT22;52218;51.224;-2.328;2023-02-10T07:22:24;-2.20;99.90
65074;DHT22;52218;51.224;-2.328;2023-02-10T07:26:06;-2.20;99.90
65074;DHT22;52218;51.224;-2.328;2023-02-10T07:29:48;-2.20;99.90
65074;DHT22;52218;51.224;-2.328;2023-02-10T07:33:30;-2.20;99.90
65074;DHT22;52218;51.224;-2.328;2023-02-10T07:37:12;-2.20;99.90
65074;DHT22;52218;51.224;-2.328;2023-02-10T07:40:54;-2.10;99.90
65074;DHT22;52218;51.224;-2.328;2023-02-10T07:44:36;-2.10;99.90
65074;DHT22;52218;51.224;-2.328;2023-02-10T07:48:19;-2.00;99.90
65074;DHT22;52218;51.224;-2.328;2023-02-10T07:52:01;-2.00;99.90
65074;DHT22;52218;51.224;-2.328;2023-02-10T07:55:43;-1.90;99.90
65074;DHT22;52218;51.224;-2.328;2023-02-10T07:59:25;-1.80;99.90
65074;DHT22;52218;51.224;-2.328;2023-02-10T08:03:13;-1.70;99.90
65074;DHT22;52218;51.224;-2.328;2023-02-10T08:06:55;-1.60;99.90
65074;DHT22;52218;51.224;-2.328;2023-02-10T08:10:37;-1.50;99.90
65074;DHT22;52218;51.224;-2.328;2023-02-10T08:14:19;-1.30;99.90
65074;DHT22;52218;51.224;-2.328;2023-02-10T08:18:01;-1.10;99.90
65074;DHT22;52218;51.224;-2.328;2023-02-10T08:21:43;-0.80;99.90
65074;DHT22;52218;51.224;-2.328;2023-02-10T08:25:28;-0.50;99.90
65074;DHT22;52218;51.224;-2.328;2023-02-10T08:29:10;-0.10;99.90
65074;DHT22;52218;51.224;-2.328;2023-02-10T08:32:52;0.20;99.90
65074;DHT22;52218;51.224;-2.328;2023-02-10T08:36:34;0.40;99.90
65074;DHT22;52218;51.224;-2.328;2023-02-10T08:40:16;0.60;99.90
65074;DHT22;52218;51.224;-2.328;2023-02-10T08:43:58;0.90;99.90
65074;DHT22;52218;51.224;-2.328;2023-02-10T08:47:40;1.20;99.90
65074;DHT22;52218;51.224;-2.328;2023-02-10T08:51:22;1.40;99.90
65074;DHT22;52218;51.224;-2.328;2023-02-10T08:55:04;1.70;99.90
65074;DHT22;52218;51.224;-2.328;2023-02-10T08:58:49;1.90;99.90
65074;DHT22;52218;51.224;-2.328;2023-02-10T09:02:32;2.20;99.90
65074;DHT22;52218;51.224;-2.328;2023-02-10T09:06:17;2.40;99.90
65074;DHT22;52218;51.224;-2.328;2023-02-10T09:09:59;2.60;99.90
65074;DHT22;52218;51.224;-2.328;2023-02-10T09:13:44;2.80;99.90
65074;DHT22;52218;51.224;-2.328;2023-02-10T09:17:26;3.00;99.90
65074;DHT22;52218;51.224;-2.328;2023-02-10T09:21:08;3.10;99.90
65074;DHT22;52218;51.224;-2.328;2023-02-10T09:24:50;3.20;99.90
65074;DHT22;52218;51.224;-2.328;2023-02-10T09:28:34;3.30;99.90
65074;DHT22;52218;51.224;-2.328;2023-02-10T09:32:16;3.40;99.90
65074;DHT22;52218;51.224;-2.328;2023-02-10T09:35:58;3.40;99.90
65074;DHT22;52218;51.224;-2.328;2023-02-10T09:39:40;3.40;99.90
65074;DHT22;52218;51.224;-2.328;2023-02-10T09:51:42;3.70;99.90
65074;DHT22;52218;51.224;-2.328;2023-02-10T09:55:37;3.90;99.90
65074;DHT22;52218;51.224;-2.328;2023-02-10T09:59:21;4.00;99.90
65074;DHT22;52218;51.224;-2.328;2023-02-10T10:03:07;4.10;99.90
65074;DHT22;52218;51.224;-2.328;2023-02-10T10:07:03;4.20;99.90
65074;DHT22;52218;51.224;-2.328;2023-02-10T10:10:49;4.40;99.90
65074;DHT22;52218;51.224;-2.328;2023-02-10T10:14:35;4.60;99.90
65074;DHT22;52218;51.224;-2.328;2023-02-10T10:30:37;6.20;99.90
65074;DHT22;52218;51.224;-2.328;2023-02-10T10:34:24;6.90;99.90
65074;DHT22;52218;51.224;-2.328;2023-02-10T10:38:24;7.20;99.90
65074;DHT22;52218;51.224;-2.328;2023-02-10T10:50:05;9.20;99.90
65074;DHT22;52218;51.224;-2.328;2023-02-10T10:53:50;9.60;99.90
65074;DHT22;52218;51.224;-2.328;2023-02-10T10:57:32;9.60;99.90
65074;DHT22;52218;51.224;-2.328;2023-02-10T11:01:17;9.50;99.90
65074;DHT22;52218;51.224;-2.328;2023-02-10T11:05:08;9.20;99.90
65074;DHT22;52218;51.224;-2.328;2023-02-10T11:08:58;9.20;99.90
65074;DHT22;52218;51.224;-2.328;2023-02-10T11:12:45;9.40;99.90
65074;DHT22;52218;51.224;-2.328;2023-02-10T11:16:28;9.70;99.90
65074;DHT22;52218;51.224;-2.328;2023-02-10T11:23:55;10.60;99.90
65074;DHT22;52218;51.224;-2.328;2023-02-10T11:27:37;10.60;99.90
65074;DHT22;52218;51.224;-2.328;2023-02-10T11:35:06;10.30;99.90
65074;DHT22;52218;51.224;-2.328;2023-02-10T11:39:02;10.50;99.90
65074;DHT22;52218;51.224;-2.328;2023-02-10T11:42:52;11.00;99.90
65074;DHT22;52218;51.224;-2.328;2023-02-10T11:46:35;11.40;99.90
65074;DHT22;52218;51.224;-2.328;2023-02-10T11:50:24;11.90;99.90
65074;DHT22;52218;51.224;-2.328;2023-02-10T11:54:07;12.10;99.90
65074;DHT22;52218;51.224;-2.328;2023-02-10T12:02:39;11.80;99.90
65074;DHT22;52218;51.224;-2.328;2023-02-10T12:14:28;11.70;99.90
65074;DHT22;52218;51.224;-2.328;2023-02-10T12:18:20;12.50;99.90
65074;DHT22;52218;51.224;-2.328;2023-02-10T12:22:22;13.10;99.90
65074;DHT22;52218;51.224;-2.328;2023-02-10T12:54:03;16.10;99.90
65074;DHT22;52218;51.224;-2.328;2023-02-10T12:57:57;16.20;99.90
65074;DHT22;52218;51.224;-2.328;2023-02-10T13:01:50;16.20;99.90
65074;DHT22;52218;51.224;-2.328;2023-02-10T13:05:57;15.90;99.90
65074;DHT22;52218;51.224;-2.328;2023-02-10T13:13:26;14.70;99.90
65074;DHT22;52218;51.224;-2.328;2023-02-10T13:17:09;14.40;99.90
65074;DHT22;52218;51.224;-2.328;2023-02-10T13:24:47;14.20;99.90
65074;DHT22;52218;51.224;-2.328;2023-02-10T13:28:49;14.10;99.90
65074;DHT22;52218;51.224;-2.328;2023-02-10T13:36:29;13.70;99.90
65074;DHT22;52218;51.224;-2.328;2023-02-10T13:43:57;13.50;99.90
65074;DHT22;52218;51.224;-2.328;2023-02-10T13:47:54;13.30;99.90
65074;DHT22;52218;51.224;-2.328;2023-02-10T13:51:37;13.40;99.90
65074;DHT22;52218;51.224;-2.328;2023-02-10T13:59:04;13.40;99.90
65074;DHT22;52218;51.224;-2.328;2023-02-10T14:03:18;13.60;99.90
65074;DHT22;52218;51.224;-2.328;2023-02-10T14:07:01;13.70;99.90
65074;DHT22;52218;51.224;-2.328;2023-02-10T14:10:44;13.50;99.90
65074;DHT22;52218;51.224;-2.328;2023-02-10T14:14:38;13.40;99.90
65074;DHT22;52218;51.224;-2.328;2023-02-10T14:18:24;13.30;99.90
65074;DHT22;52218;51.224;-2.328;2023-02-10T14:22:31;13.00;99.90
65074;DHT22;52218;51.224;-2.328;2023-02-10T14:26:28;12.80;99.90
65074;DHT22;52218;51.224;-2.328;2023-02-10T14:30:19;12.50;99.90
65074;DHT22;52218;51.224;-2.328;2023-02-10T14:38:02;12.30;99.90
65074;DHT22;52218;51.224;-2.328;2023-02-10T14:41:44;12.20;99.90
65074;DHT22;52218;51.224;-2.328;2023-02-10T14:45:27;12.10;99.90
65074;DHT22;52218;51.224;-2.328;2023-02-10T14:49:11;11.90;99.90
65074;DHT22;52218;51.224;-2.328;2023-02-10T14:52:57;11.70;99.90
65074;DHT22;52218;51.224;-2.328;2023-02-10T14:56:40;11.60;99.90
65074;DHT22;52218;51.224;-2.328;2023-02-10T15:00:31;11.50;99.90
65074;DHT22;52218;51.224;-2.328;2023-02-10T15:04:16;11.40;99.90
65074;DHT22;52218;51.224;-2.328;2023-02-10T15:07:59;11.30;99.90
65074;DHT22;52218;51.224;-2.328;2023-02-10T15:12:03;11.30;99.90
65074;DHT22;52218;51.224;-2.328;2023-02-10T15:15:52;11.20;99.90
65074;DHT22;52218;51.224;-2.328;2023-02-10T15:19:36;11.20;99.90
65074;DHT22;52218;51.224;-2.328;2023-02-10T15:23:18;11.10;99.90
65074;DHT22;52218;51.224;-2.328;2023-02-10T15:27:18;11.00;99.90
65074;DHT22;52218;51.224;-2.328;2023-02-10T15:35:05;10.80;99.90
65074;DHT22;52218;51.224;-2.328;2023-02-10T15:38:58;10.70;99.90
65074;DHT22;52218;51.224;-2.328;2023-02-10T15:42:43;10.60;99.90
65074;DHT22;52218;51.224;-2.328;2023-02-10T15:46:27;10.60;99.90
65074;DHT22;52218;51.224;-2.328;2023-02-10T15:50:11;10.50;99.90
65074;DHT22;52218;51.224;-2.328;2023-02-10T15:53:55;10.50;99.90
65074;DHT22;52218;51.224;-2.328;2023-02-10T15:57:38;10.40;99.90
65074;DHT22;52218;51.224;-2.328;2023-02-10T16:01:20;10.40;99.90
65074;DHT22;52218;51.224;-2.328;2023-02-10T16:05:02;10.30;99.90
65074;DHT22;52218;51.224;-2.328;2023-02-10T16:08:45;10.20;99.90
65074;DHT22;52218;51.224;-2.328;2023-02-10T16:12:27;10.20;99.90
65074;DHT22;52218;51.224;-2.328;2023-02-10T16:16:16;10.20;99.90
65074;DHT22;52218;51.224;-2.328;2023-02-10T16:19:58;10.20;99.90
65074;DHT22;52218;51.224;-2.328;2023-02-10T16:23:41;10.10;99.90
65074;DHT22;52218;51.224;-2.328;2023-02-10T16:27:23;10.10;99.90
65074;DHT22;52218;51.224;-2.328;2023-02-10T16:31:05;10.10;99.90
65074;DHT22;52218;51.224;-2.328;2023-02-10T16:34:47;10.10;99.90
65074;DHT22;52218;51.224;-2.328;2023-02-10T16:38:29;10.00;99.90
65074;DHT22;52218;51.224;-2.328;2023-02-10T16:42:12;10.00;99.90
65074;DHT22;52218;51.224;-2.328;2023-02-10T16:45:54;10.00;99.90
65074;DHT22;52218;51.224;-2.328;2023-02-10T16:49:36;9.90;99.90
65074;DHT22;52218;51.224;-2.328;2023-02-10T16:53:18;9.80;99.90
65074;DHT22;52218;51.224;-2.328;2023-02-10T16:57:00;9.80;99.90
65074;DHT22;52218;51.224;-2.328;2023-02-10T17:00:43;9.80;99.90
65074;DHT22;52218;51.224;-2.328;2023-02-10T17:04:25;9.70;99.90
65074;DHT22;52218;51.224;-2.328;2023-02-10T17:08:09;9.70;99.90
65074;DHT22;52218;51.224;-2.328;2023-02-10T17:11:51;9.70;99.90
65074;DHT22;52218;51.224;-2.328;2023-02-10T17:15:33;9.60;99.90
65074;DHT22;52218;51.224;-2.328;2023-02-10T17:19:17;9.60;99.90
65074;DHT22;52218;51.224;-2.328;2023-02-10T17:23:00;9.60;99.90
65074;DHT22;52218;51.224;-2.328;2023-02-10T17:26:44;9.60;99.90
65074;DHT22;52218;51.224;-2.328;2023-02-10T17:30:29;9.60;99.90
65074;DHT22;52218;51.224;-2.328;2023-02-10T17:34:11;9.50;99.90
65074;DHT22;52218;51.224;-2.328;2023-02-10T17:37:56;9.50;99.90
65074;DHT22;52218;51.224;-2.328;2023-02-10T17:41:57;9.50;99.90
65074;DHT22;52218;51.224;-2.328;2023-02-10T17:45:39;9.50;99.90
65074;DHT22;52218;51.224;-2.328;2023-02-10T17:49:26;9.40;99.90
65074;DHT22;52218;51.224;-2.328;2023-02-10T17:53:09;9.40;99.90
65074;DHT22;52218;51.224;-2.328;2023-02-10T17:56:51;9.30;99.90
65074;DHT22;52218;51.224;-2.328;2023-02-10T18:00:33;9.30;99.90
65074;DHT22;52218;51.224;-2.328;2023-02-10T18:04:15;9.30;99.90
65074;DHT22;52218;51.224;-2.328;2023-02-10T18:07:58;9.30;99.90
65074;DHT22;52218;51.224;-2.328;2023-02-10T18:11:40;9.20;99.90
65074;DHT22;52218;51.224;-2.328;2023-02-10T18:15:22;9.20;99.90
65074;DHT22;52218;51.224;-2.328;2023-02-10T18:19:04;9.20;99.90
65074;DHT22;52218;51.224;-2.328;2023-02-10T18:22:46;9.20;99.90
65074;DHT22;52218;51.224;-2.328;2023-02-10T18:26:29;9.10;99.90
65074;DHT22;52218;51.224;-2.328;2023-02-10T18:30:14;9.10;99.90
65074;DHT22;52218;51.224;-2.328;2023-02-10T18:33:56;9.10;99.90
65074;DHT22;52218;51.224;-2.328;2023-02-10T18:37:40;9.10;99.90
65074;DHT22;52218;51.224;-2.328;2023-02-10T18:41:22;9.10;99.90
65074;DHT22;52218;51.224;-2.328;2023-02-10T18:45:04;9.10;99.90
65074;DHT22;52218;51.224;-2.328;2023-02-10T18:48:46;9.10;99.90
65074;DHT22;52218;51.224;-2.328;2023-02-10T18:52:28;9.10;99.90
65074;DHT22;52218;51.224;-2.328;2023-02-10T18:56:13;9.10;99.90
65074;DHT22;52218;51.224;-2.328;2023-02-10T18:59:56;9.10;99.90
65074;DHT22;52218;51.224;-2.328;2023-02-10T19:03:38;9.10;99.90
65074;DHT22;52218;51.224;-2.328;2023-02-10T19:07:20;9.10;99.90
65074;DHT22;52218;51.224;-2.328;2023-02-10T19:11:05;9.10;99.90
65074;DHT22;52218;51.224;-2.328;2023-02-10T19:14:47;9.10;99.90
65074;DHT22;52218;51.224;-2.328;2023-02-10T19:18:29;9.10;99.90
65074;DHT22;52218;51.224;-2.328;2023-02-10T19:22:11;9.10;99.90
65074;DHT22;52218;51.224;-2.328;2023-02-10T19:25:53;9.20;99.90
65074;DHT22;52218;51.224;-2.328;2023-02-10T19:29:35;9.20;99.90
65074;DHT22;52218;51.224;-2.328;2023-02-10T19:33:17;9.20;99.90
65074;DHT22;52218;51.224;-2.328;2023-02-10T19:36:59;9.10;99.90
65074;DHT22;52218;51.224;-2.328;2023-02-10T19:40:42;9.20;99.90
65074;DHT22;52218;51.224;-2.328;2023-02-10T19:44:24;9.10;99.90
65074;DHT22;52218;51.224;-2.328;2023-02-10T19:48:06;9.10;99.90
65074;DHT22;52218;51.224;-2.328;2023-02-10T19:51:48;9.10;99.90
65074;DHT22;52218;51.224;-2.328;2023-02-10T19:55:30;9.10;99.90
65074;DHT22;52218;51.224;-2.328;2023-02-10T19:59:12;9.10;99.90
65074;DHT22;52218;51.224;-2.328;2023-02-10T20:02:54;9.10;99.90
65074;DHT22;52218;51.224;-2.328;2023-02-10T20:06:40;9.10;99.90
65074;DHT22;52218;51.224;-2.328;2023-02-10T20:10:22;9.20;99.90
65074;DHT22;52218;51.224;-2.328;2023-02-10T20:14:06;9.10;99.90
65074;DHT22;52218;51.224;-2.328;2023-02-10T20:17:51;9.10;99.90
65074;DHT22;52218;51.224;-2.328;2023-02-10T20:21:33;9.20;99.90
65074;DHT22;52218;51.224;-2.328;2023-02-10T20:25:15;9.20;99.90
65074;DHT22;52218;51.224;-2.328;2023-02-10T20:28:57;9.20;99.90
65074;DHT22;52218;51.224;-2.328;2023-02-10T20:32:39;9.30;99.90
65074;DHT22;52218;51.224;-2.328;2023-02-10T20:36:22;9.30;99.90
65074;DHT22;52218;51.224;-2.328;2023-02-10T20:40:04;9.30;99.90
65074;DHT22;52218;51.224;-2.328;2023-02-10T20:43:48;9.30;99.90
65074;DHT22;52218;51.224;-2.328;2023-02-10T20:47:31;9.40;99.90
65074;DHT22;52218;51.224;-2.328;2023-02-10T20:51:14;9.40;99.90
65074;DHT22;52218;51.224;-2.328;2023-02-10T20:54:57;9.40;99.90
65074;DHT22;52218;51.224;-2.328;2023-02-10T20:58:39;9.40;99.90
65074;DHT22;52218;51.224;-2.328;2023-02-10T21:02:21;9.30;99.90
65074;DHT22;52218;51.224;-2.328;2023-02-10T21:06:14;9.30;99.90
65074;DHT22;52218;51.224;-2.328;2023-02-10T21:09:56;9.20;99.90
65074;DHT22;52218;51.224;-2.328;2023-02-10T21:13:39;9.20;99.90
65074;DHT22;52218;51.224;-2.328;2023-02-10T21:17:21;9.20;99.90
65074;DHT22;52218;51.224;-2.328;2023-02-10T21:21:06;9.20;99.90
65074;DHT22;52218;51.224;-2.328;2023-02-10T21:24:48;9.20;99.90
65074;DHT22;52218;51.224;-2.328;2023-02-10T21:28:30;9.20;99.90
65074;DHT22;52218;51.224;-2.328;2023-02-10T21:32:12;9.20;99.90
65074;DHT22;52218;51.224;-2.328;2023-02-10T21:35:55;9.20;99.90
65074;DHT22;52218;51.224;-2.328;2023-02-10T21:39:37;9.20;99.90
65074;DHT22;52218;51.224;-2.328;2023-02-10T21:43:19;9.20;99.90
65074;DHT22;52218;51.224;-2.328;2023-02-10T21:47:03;9.20;99.90
65074;DHT22;52218;51.224;-2.328;2023-02-10T21:50:46;9.20;99.90
65074;DHT22;52218;51.224;-2.328;2023-02-10T21:54:28;9.20;99.90
65074;DHT22;52218;51.224;-2.328;2023-02-10T21:58:10;9.20;99.90
65074;DHT22;52218;51.224;-2.328;2023-02-10T22:01:52;9.20;99.90
65074;DHT22;52218;51.224;-2.328;2023-02-10T22:05:34;9.20;99.90
65074;DHT22;52218;51.224;-2.328;2023-02-10T22:09:17;9.20;99.90
65074;DHT22;52218;51.224;-2.328;2023-02-10T22:12:59;9.20;99.90
65074;DHT22;52218;51.224;-2.328;2023-02-10T22:16:41;9.30;99.90
65074;DHT22;52218;51.224;-2.328;2023-02-10T22:20:23;9.30;99.90
65074;DHT22;52218;51.224;-2.328;2023-02-10T22:24:05;9.30;99.90
65074;DHT22;52218;51.224;-2.328;2023-02-10T22:27:48;9.30;99.90
65074;DHT22;52218;51.224;-2.328;2023-02-10T22:31:31;9.30;99.90
65074;DHT22;52218;51.224;-2.328;2023-02-10T22:35:14;9.40;99.90
65074;DHT22;52218;51.224;-2.328;2023-02-10T22:38:57;9.40;99.90
65074;DHT22;52218;51.224;-2.328;2023-02-10T22:42:40;9.40;99.90
65074;DHT22;52218;51.224;-2.328;2023-02-10T22:46:22;9.40;99.90
65074;DHT22;52218;51.224;-2.328;2023-02-10T22:50:04;9.40;99.90
65074;DHT22;52218;51.224;-2.328;2023-02-10T22:53:46;9.50;99.90
65074;DHT22;52218;51.224;-2.328;2023-02-10T22:57:28;9.50;99.90
65074;DHT22;52218;51.224;-2.328;2023-02-10T23:01:11;9.50;99.90
65074;DHT22;52218;51.224;-2.328;2023-02-10T23:04:54;9.50;99.90
65074;DHT22;52218;51.224;-2.328;2023-02-10T23:08:36;9.50;99.90
65074;DHT22;52218;51.224;-2.328;2023-02-10T23:12:19;9.60;99.90
65074;DHT22;52218;51.224;-2.328;2023-02-10T23:16:02;9.60;99.90
65074;DHT22;52218;51.224;-2.328;2023-02-10T23:19:44;9.60;99.90
65074;DHT22;52218;51.224;-2.328;2023-02-10T23:23:26;9.60;99.90
65074;DHT22;52218;51.224;-2.328;2023-02-10T23:27:08;9.70;99.90
65074;DHT22;52218;51.224;-2.328;2023-02-10T23:30:50;9.70;99.90
65074;DHT22;52218;51.224;-2.328;2023-02-10T23:34:32;9.70;99.90
65074;DHT22;52218;51.224;-2.328;2023-02-10T23:38:16;9.70;99.90
65074;DHT22;52218;51.224;-2.328;2023-02-10T23:41:58;9.70;99.90
65074;DHT22;52218;51.224;-2.328;2023-02-10T23:45:41;9.80;99.90
65074;DHT22;52218;51.224;-2.328;2023-02-10T23:49:23;9.80;99.90
65074;DHT22;52218;51.224;-2.328;2023-02-10T23:53:05;9.80;99.90
65074;DHT22;52218;51.224;-2.328;2023-02-10T23:56:47;9.80;99.90
